CheckWX is a tool to help pilots better visualize weather data.  It is not intended as a substitute for an official pre-flight weather briefing.

17:04:03 UTC

RKTN TAF
Daegu Airport
Daegu, South Korea
TAF RKTN 181100Z 1812/1918 31008KT 9999 SCT030 BKN100 TN19/1821Z TX29/1906Z BECMG 1813/1814 SCT030

Jun-18@
12:00 UTC

Jun-18 @ 12:00 UTC

Jun-18@
13:00 UTC

Jun-18 @ 13:00 UTC

TAF RKTN 181100Z 1812/1918 31008KT 9999 SCT030 BKN100 TN19/1821Z TX29/1906Z

Expired

Wind
  • 310° at 8 KTS
Cloud Levels
  • Scattered at 3,000' AGL
  • Broken at 10,000' AGL

Jun-18@
13:00 UTC

Jun-18 @ 13:00 UTC

Jun-19@
18:00 UTC

Jun-19 @ 18:00 UTC

BECMG 1813/1814 SCT030

Becoming

Becoming Conditions expected by Tue, Jun 18, 2019 @ 14:00 UTC

Wind
  • 310° at 8 KTS
Cloud Levels
  • Scattered at 3,000' AGL